Time;durP1;ratioP1;P1;durP2;ratioP2;P2;SDS_P1;SDS_P2;PMS_P1;PMS_P2;Temp;Humidity;BMP_temperature;BMP_pressure;BME280_temperature;BME280_humidity;BME280_pressure;Samples;Min_cycle;Max_cycle;Signal;HPM_P1;HPM_P2
2023/06/29 00:01:15;;;;;;;;;;;22.70;54.50;;;;;;5066430;28;19999;-79
2023/06/29 00:03:42;;;;;;;;;;;22.70;54.60;;;;;;5058863;28;19983;-78
2023/06/29 00:06:08;;;;;;;;;;;22.60;54.60;;;;;;5062655;28;19995;-78
2023/06/29 00:08:36;;;;;;;;;;;22.60;54.70;;;;;;5066124;28;20070;-80
2023/06/29 00:11:04;;;;;;;;;;;22.60;54.80;;;;;;5054583;28;20038;-80
2023/06/29 00:13:31;;;;;;;;;;;22.60;54.90;;;;;;5067792;28;20011;-80
2023/06/29 00:15:57;;;;;;;;;;;22.50;54.90;;;;;;5058528;28;20376;-80
2023/06/29 00:18:28;;;;;;;;;;;22.50;55.00;;;;;;5058871;28;19980;-80
2023/06/29 00:20:56;;;;;;;;;;;22.50;55.00;;;;;;5060120;28;20032;-79
2023/06/29 00:23:24;;;;;;;;;;;22.40;55.10;;;;;;5059678;28;20057;-79
2023/06/29 00:25:53;;;;;;;;;;;22.40;55.20;;;;;;5057470;28;20002;-79
2023/06/29 00:28:19;;;;;;;;;;;22.40;55.20;;;;;;5054594;28;20030;-79
2023/06/29 00:30:46;;;;;;;;;;;22.30;55.30;;;;;;5053516;28;20054;-79
2023/06/29 00:33:12;;;;;;;;;;;22.30;55.40;;;;;;5056273;28;19976;-79
2023/06/29 00:35:39;;;;;;;;;;;22.30;55.40;;;;;;5056738;28;19996;-79
2023/06/29 00:38:05;;;;;;;;;;;22.30;55.60;;;;;;5047800;28;20003;-78
2023/06/29 00:40:32;;;;;;;;;;;22.20;55.50;;;;;;5060073;28;20468;-79
2023/06/29 00:43:00;;;;;;;;;;;22.20;55.70;;;;;;5056723;28;19975;-79
2023/06/29 00:45:26;;;;;;;;;;;22.20;55.80;;;;;;5053032;28;20073;-78
2023/06/29 00:47:53;;;;;;;;;;;22.20;55.90;;;;;;5051690;28;19975;-79
2023/06/29 00:50:21;;;;;;;;;;;22.10;55.90;;;;;;5056239;28;19983;-81
2023/06/29 00:52:48;;;;;;;;;;;22.10;56.00;;;;;;5056362;28;20623;-79
2023/06/29 00:55:14;;;;;;;;;;;22.10;56.10;;;;;;5051496;28;19991;-80
2023/06/29 00:57:41;;;;;;;;;;;22.00;56.10;;;;;;5055131;28;20506;-79
2023/06/29 01:00:10;;;;;;;;;;;22.00;56.20;;;;;;5060473;28;19975;-78
2023/06/29 01:02:40;;;;;;;;;;;22.00;56.20;;;;;;5057495;28;20373;-80
2023/06/29 01:05:09;;;;;;;;;;;21.90;56.20;;;;;;5055159;28;19992;-78
2023/06/29 01:07:37;;;;;;;;;;;21.90;56.30;;;;;;5057389;28;19975;-78
2023/06/29 01:10:05;;;;;;;;;;;21.90;56.40;;;;;;5054618;28;20646;-79
2023/06/29 01:12:32;;;;;;;;;;;21.90;56.50;;;;;;5055552;28;19987;-80
2023/06/29 01:14:59;;;;;;;;;;;21.80;56.40;;;;;;5054661;28;19999;-79
2023/06/29 01:17:30;;;;;;;;;;;21.80;56.60;;;;;;5051067;28;19998;-80
2023/06/29 01:19:58;;;;;;;;;;;21.80;56.60;;;;;;5056640;28;20071;-80
2023/06/29 01:22:28;;;;;;;;;;;21.70;56.50;;;;;;5053050;28;20476;-80
2023/06/29 01:24:56;;;;;;;;;;;21.70;56.70;;;;;;5056647;28;20048;-79
2023/06/29 01:27:22;;;;;;;;;;;21.70;56.80;;;;;;5052132;28;19987;-79
2023/06/29 01:29:53;;;;;;;;;;;21.70;56.90;;;;;;5054379;28;19980;-79
2023/06/29 01:32:19;;;;;;;;;;;21.60;56.80;;;;;;5057215;28;20495;-81
2023/06/29 01:34:46;;;;;;;;;;;21.60;56.90;;;;;;5058480;28;20408;-79
2023/06/29 01:37:15;;;;;;;;;;;21.60;56.90;;;;;;5053815;28;19983;-79
2023/06/29 01:39:44;;;;;;;;;;;21.60;57.00;;;;;;5060313;28;19983;-79
2023/06/29 01:42:13;;;;;;;;;;;21.50;57.10;;;;;;5051296;28;19980;-78
2023/06/29 01:44:40;;;;;;;;;;;21.50;57.10;;;;;;5057972;28;19995;-79
2023/06/29 01:47:07;;;;;;;;;;;21.50;57.30;;;;;;5059366;28;20003;-79
2023/06/29 01:49:34;;;;;;;;;;;21.50;57.20;;;;;;5049662;28;19975;-79
2023/06/29 01:52:01;;;;;;;;;;;21.50;57.30;;;;;;5059187;28;19975;-80
2023/06/29 01:54:27;;;;;;;;;;;21.40;57.30;;;;;;5063216;28;19992;-79
2023/06/29 01:56:54;;;;;;;;;;;21.30;57.30;;;;;;5064886;28;19980;-80
2023/06/29 01:59:21;;;;;;;;;;;21.30;57.40;;;;;;5060475;28;19975;-79
2023/06/29 02:01:48;;;;;;;;;;;21.30;57.40;;;;;;5056734;28;19999;-79
2023/06/29 02:04:15;;;;;;;;;;;21.30;57.50;;;;;;5060209;28;20046;-78
2023/06/29 02:06:41;;;;;;;;;;;21.30;57.50;;;;;;5066046;28;20006;-79
2023/06/29 02:09:08;;;;;;;;;;;21.20;57.50;;;;;;5061889;28;19983;-79
2023/06/29 02:11:34;;;;;;;;;;;21.20;57.50;;;;;;5059052;28;20022;-79
2023/06/29 02:14:01;;;;;;;;;;;21.20;57.60;;;;;;5065233;28;20370;-80
2023/06/29 02:16:29;;;;;;;;;;;21.20;57.60;;;;;;5062023;28;19999;-78
2023/06/29 02:18:55;;;;;;;;;;;21.20;57.60;;;;;;5061994;28;20102;-78
2023/06/29 02:21:22;;;;;;;;;;;21.10;57.70;;;;;;5057943;28;19979;-80
2023/06/29 02:23:48;;;;;;;;;;;21.10;57.70;;;;;;5056287;28;19980;-82
2023/06/29 02:26:15;;;;;;;;;;;21.10;57.80;;;;;;5059195;28;20428;-79
2023/06/29 02:28:41;;;;;;;;;;;21.10;57.90;;;;;;5058263;28;20432;-80
2023/06/29 02:31:08;;;;;;;;;;;21.00;57.80;;;;;;5057645;28;19991;-79
2023/06/29 02:33:36;;;;;;;;;;;21.00;57.90;;;;;;5063393;28;19976;-80
2023/06/29 02:36:02;;;;;;;;;;;21.00;58.00;;;;;;5061929;28;20050;-79
2023/06/29 02:38:29;;;;;;;;;;;20.90;58.00;;;;;;5065339;28;20529;-79
2023/06/29 02:40:55;;;;;;;;;;;21.00;58.10;;;;;;5064655;28;19980;-80
2023/06/29 02:43:22;;;;;;;;;;;20.90;58.10;;;;;;5054630;28;19986;-79
2023/06/29 02:45:48;;;;;;;;;;;20.90;58.10;;;;;;5062165;28;20000;-79
2023/06/29 02:48:15;;;;;;;;;;;20.90;58.10;;;;;;5065447;28;20575;-79
2023/06/29 02:50:43;;;;;;;;;;;20.90;58.10;;;;;;5059273;28;20040;-80
2023/06/29 02:53:11;;;;;;;;;;;20.80;58.20;;;;;;5055941;28;19976;-79
2023/06/29 02:55:38;;;;;;;;;;;20.80;58.20;;;;;;5058980;28;19999;-79
2023/06/29 02:58:04;;;;;;;;;;;20.80;58.20;;;;;;5064485;28;20021;-80
2023/06/29 03:00:31;;;;;;;;;;;20.80;58.20;;;;;;5063546;28;20057;-79
2023/06/29 03:02:57;;;;;;;;;;;20.70;58.20;;;;;;5061738;28;19975;-79
2023/06/29 03:05:24;;;;;;;;;;;20.70;58.30;;;;;;5063949;28;20000;-79
2023/06/29 03:07:52;;;;;;;;;;;20.70;58.20;;;;;;5053887;28;19999;-79
2023/06/29 03:10:18;;;;;;;;;;;20.70;58.30;;;;;;5060709;28;19984;-79
2023/06/29 03:12:45;;;;;;;;;;;20.60;58.30;;;;;;5071399;28;19979;-79
2023/06/29 03:15:12;;;;;;;;;;;20.60;58.40;;;;;;5059113;28;20007;-79
2023/06/29 03:17:38;;;;;;;;;;;20.60;58.50;;;;;;5061106;28;19979;-79
2023/06/29 03:20:06;;;;;;;;;;;20.60;58.50;;;;;;5058879;28;19976;-80
2023/06/29 03:22:32;;;;;;;;;;;20.50;58.50;;;;;;5065306;28;20391;-79
2023/06/29 03:25:00;;;;;;;;;;;20.50;58.60;;;;;;5059392;28;20559;-80
2023/06/29 03:27:27;;;;;;;;;;;20.50;58.70;;;;;;5063232;28;20053;-78
2023/06/29 03:29:53;;;;;;;;;;;20.50;58.70;;;;;;5054119;28;19986;-80
2023/06/29 03:32:20;;;;;;;;;;;20.50;58.70;;;;;;5063557;28;20535;-80
2023/06/29 03:34:47;;;;;;;;;;;20.50;58.90;;;;;;5055407;28;19995;-79
2023/06/29 03:37:13;;;;;;;;;;;20.40;58.80;;;;;;5057376;28;20010;-80
2023/06/29 03:39:40;;;;;;;;;;;20.40;58.90;;;;;;5063831;28;19987;-80
2023/06/29 03:42:08;;;;;;;;;;;20.40;59.00;;;;;;5061267;28;19983;-79
2023/06/29 03:44:36;;;;;;;;;;;20.30;58.90;;;;;;5055025;28;20094;-80
2023/06/29 03:47:02;;;;;;;;;;;20.40;59.00;;;;;;5061202;28;19999;-80
2023/06/29 03:49:29;;;;;;;;;;;20.30;59.00;;;;;;5061058;28;19982;-79
2023/06/29 03:51:55;;;;;;;;;;;20.30;59.00;;;;;;5063994;28;19979;-79
2023/06/29 03:54:22;;;;;;;;;;;20.30;59.10;;;;;;5065445;28;20025;-79
2023/06/29 03:56:48;;;;;;;;;;;20.20;59.10;;;;;;5052986;28;19986;-81
2023/06/29 03:59:16;;;;;;;;;;;20.20;59.10;;;;;;5060450;28;19980;-80
2023/06/29 04:01:43;;;;;;;;;;;20.20;59.10;;;;;;5062392;28;20006;-80
2023/06/29 04:04:09;;;;;;;;;;;20.10;59.10;;;;;;5063578;28;19982;-79
2023/06/29 04:06:36;;;;;;;;;;;20.20;59.20;;;;;;5050144;28;20053;-78
2023/06/29 04:09:02;;;;;;;;;;;20.20;59.20;;;;;;5052151;28;20638;-79
2023/06/29 04:11:29;;;;;;;;;;;20.10;59.20;;;;;;5054499;28;20054;-80
2023/06/29 04:13:55;;;;;;;;;;;20.10;59.30;;;;;;5054954;28;19987;-79
2023/06/29 04:16:23;;;;;;;;;;;20.10;59.30;;;;;;5057571;28;20006;-79
2023/06/29 04:18:50;;;;;;;;;;;20.10;59.40;;;;;;5060365;28;20002;-79
2023/06/29 04:21:16;;;;;;;;;;;20.10;59.40;;;;;;5060684;28;19975;-79
2023/06/29 04:23:43;;;;;;;;;;;20.00;59.40;;;;;;5061708;28;20633;-79
2023/06/29 04:26:10;;;;;;;;;;;20.00;59.40;;;;;;5058027;28;19987;-79
2023/06/29 04:28:36;;;;;;;;;;;20.00;59.50;;;;;;5061129;28;20056;-79
2023/06/29 04:31:03;;;;;;;;;;;20.00;59.50;;;;;;5056724;28;20357;-79
2023/06/29 04:33:31;;;;;;;;;;;20.00;59.60;;;;;;5056756;28;19972;-78
2023/06/29 04:35:57;;;;;;;;;;;20.00;59.60;;;;;;5046055;28;20000;-79
2023/06/29 04:38:26;;;;;;;;;;;19.90;59.70;;;;;;5050304;28;20026;-79
2023/06/29 04:41:03;;;;;;;;;;;19.90;59.70;;;;;;5059167;28;19984;-80
2023/06/29 04:43:29;;;;;;;;;;;19.90;59.80;;;;;;5061246;28;20033;-79
2023/06/29 04:45:56;;;;;;;;;;;19.90;59.80;;;;;;5057378;28;20003;-79
2023/06/29 04:48:28;;;;;;;;;;;19.90;59.90;;;;;;5063384;28;19999;-79
2023/06/29 04:51:04;;;;;;;;;;;19.90;60.00;;;;;;5059068;28;19980;-79
2023/06/29 04:53:31;;;;;;;;;;;19.90;60.10;;;;;;5052290;28;20062;-79
2023/06/29 04:55:58;;;;;;;;;;;19.90;60.20;;;;;;5051298;28;19996;-79
2023/06/29 04:58:25;;;;;;;;;;;19.80;60.10;;;;;;5063984;28;20403;-78
2023/06/29 05:00:51;;;;;;;;;;;19.80;60.20;;;;;;5055813;28;20007;-79
2023/06/29 05:03:18;;;;;;;;;;;19.80;60.30;;;;;;5060500;28;19975;-79
2023/06/29 05:05:45;;;;;;;;;;;19.80;60.40;;;;;;5060821;28;21271;-79
2023/06/29 05:08:13;;;;;;;;;;;19.80;60.40;;;;;;5053765;28;20837;-78
2023/06/29 05:10:40;;;;;;;;;;;19.80;60.50;;;;;;5055458;28;19987;-79
2023/06/29 05:13:06;;;;;;;;;;;19.80;60.60;;;;;;5061482;28;20529;-78
2023/06/29 05:15:33;;;;;;;;;;;19.80;60.60;;;;;;5057008;28;20006;-79
2023/06/29 05:17:59;;;;;;;;;;;19.80;60.70;;;;;;5062442;28;20017;-78
2023/06/29 05:20:26;;;;;;;;;;;19.80;60.80;;;;;;5060092;28;20391;-78
2023/06/29 05:22:53;;;;;;;;;;;19.80;60.70;;;;;;5069101;28;20048;-78
2023/06/29 05:25:21;;;;;;;;;;;19.70;60.70;;;;;;5052218;28;20000;-79
2023/06/29 05:27:47;;;;;;;;;;;19.70;60.80;;;;;;5056760;28;20346;-79
2023/06/29 05:30:16;;;;;;;;;;;19.70;60.90;;;;;;5058455;28;20571;-79
2023/06/29 05:32:42;;;;;;;;;;;19.70;61.80;;;;;;5059727;28;19980;-78
2023/06/29 05:35:09;;;;;;;;;;;19.70;61.00;;;;;;5070475;28;20544;-79
2023/06/29 05:37:35;;;;;;;;;;;19.80;61.10;;;;;;5065161;28;19979;-79
2023/06/29 05:40:02;;;;;;;;;;;19.70;61.10;;;;;;5065502;28;20022;-79
2023/06/29 05:42:30;;;;;;;;;;;19.80;61.20;;;;;;5058509;28;20634;-79
2023/06/29 05:44:58;;;;;;;;;;;19.80;61.20;;;;;;5050281;28;21541;-78
2023/06/29 05:47:25;;;;;;;;;;;19.80;61.20;;;;;;5062710;28;20064;-78
2023/06/29 05:49:51;;;;;;;;;;;19.80;61.20;;;;;;5051723;28;19984;-78
2023/06/29 05:52:18;;;;;;;;;;;19.80;61.20;;;;;;5058748;28;19976;-78
2023/06/29 05:54:44;;;;;;;;;;;19.70;61.20;;;;;;5057690;28;20049;-77
2023/06/29 05:57:11;;;;;;;;;;;19.80;61.30;;;;;;5054898;28;19983;-78
2023/06/29 05:59:39;;;;;;;;;;;19.80;62.10;;;;;;5064287;28;19980;-74
2023/06/29 06:02:06;;;;;;;;;;;19.80;61.40;;;;;;5053826;28;19995;-78
2023/06/29 06:04:34;;;;;;;;;;;19.80;61.40;;;;;;5052991;28;19995;-78
2023/06/29 06:07:00;;;;;;;;;;;19.80;61.50;;;;;;5058984;28;19982;-78
2023/06/29 06:09:27;;;;;;;;;;;19.90;61.70;;;;;;5059072;28;19975;-78
2023/06/29 06:11:54;;;;;;;;;;;19.80;61.60;;;;;;5063288;28;19986;-79
2023/06/29 06:14:21;;;;;;;;;;;19.90;61.50;;;;;;5059899;28;20457;-78
2023/06/29 06:16:49;;;;;;;;;;;19.90;61.50;;;;;;5056886;28;20104;-78
2023/06/29 06:19:15;;;;;;;;;;;19.90;61.60;;;;;;5057810;28;20607;-78
2023/06/29 06:21:42;;;;;;;;;;;19.90;61.60;;;;;;5062048;28;19979;-78
2023/06/29 06:24:08;;;;;;;;;;;19.90;61.70;;;;;;5053400;28;19976;-78
2023/06/29 06:26:35;;;;;;;;;;;19.90;61.60;;;;;;5055773;28;20357;-79
2023/06/29 06:29:01;;;;;;;;;;;20.00;61.70;;;;;;5050457;28;20013;-78
2023/06/29 06:31:28;;;;;;;;;;;20.00;61.80;;;;;;5055055;28;19999;-78
2023/06/29 06:33:57;;;;;;;;;;;20.00;61.90;;;;;;5057529;28;19980;-78
2023/06/29 06:36:24;;;;;;;;;;;20.00;61.90;;;;;;5054757;28;20734;-78
2023/06/29 06:38:50;;;;;;;;;;;20.10;61.80;;;;;;5057126;28;19984;-78
2023/06/29 06:41:17;;;;;;;;;;;20.10;62.00;;;;;;5052182;28;19983;-78
2023/06/29 06:43:43;;;;;;;;;;;20.10;62.00;;;;;;5063378;28;19983;-78
2023/06/29 06:46:10;;;;;;;;;;;20.10;62.00;;;;;;5051564;28;20003;-78
2023/06/29 06:48:36;;;;;;;;;;;20.20;62.40;;;;;;5063793;28;19995;-77
2023/06/29 06:51:04;;;;;;;;;;;20.10;62.20;;;;;;5057095;28;19979;-78
2023/06/29 06:53:31;;;;;;;;;;;20.20;62.30;;;;;;5055547;28;20368;-78
2023/06/29 06:55:57;;;;;;;;;;;20.20;62.40;;;;;;5054433;28;20007;-78
2023/06/29 06:58:24;;;;;;;;;;;20.20;62.30;;;;;;5055944;28;19982;-78
2023/06/29 07:00:50;;;;;;;;;;;20.30;62.20;;;;;;5058289;28;19999;-78
2023/06/29 07:03:18;;;;;;;;;;;20.30;62.20;;;;;;5062878;28;19976;-78
2023/06/29 07:05:45;;;;;;;;;;;20.30;62.20;;;;;;5056740;28;20634;-77
2023/06/29 07:08:12;;;;;;;;;;;20.40;62.20;;;;;;5044334;28;19991;-78
2023/06/29 07:10:39;;;;;;;;;;;20.40;62.10;;;;;;5060835;28;19983;-78
2023/06/29 07:13:05;;;;;;;;;;;20.40;62.30;;;;;;5051915;28;19976;-77
2023/06/29 07:15:32;;;;;;;;;;;20.50;62.20;;;;;;5061907;28;20007;-78
2023/06/29 07:17:59;;;;;;;;;;;20.50;62.20;;;;;;5054585;28;20465;-78
2023/06/29 07:20:25;;;;;;;;;;;20.50;62.00;;;;;;5059382;28;19976;-79
2023/06/29 07:22:52;;;;;;;;;;;20.50;61.90;;;;;;5048937;28;19979;-79
2023/06/29 07:25:19;;;;;;;;;;;20.60;62.00;;;;;;5050732;28;20117;-78
2023/06/29 07:27:46;;;;;;;;;;;20.60;62.20;;;;;;5056245;28;19995;-78
2023/06/29 07:30:13;;;;;;;;;;;20.60;62.00;;;;;;5054887;28;20099;-78
2023/06/29 07:32:40;;;;;;;;;;;20.60;62.00;;;;;;5056336;28;19986;-78
2023/06/29 07:35:07;;;;;;;;;;;20.70;62.20;;;;;;5056430;28;19998;-78
2023/06/29 07:37:34;;;;;;;;;;;20.70;62.10;;;;;;5052255;28;19979;-78
2023/06/29 07:40:04;;;;;;;;;;;20.70;62.10;;;;;;5060393;28;19976;-78
2023/06/29 07:42:32;;;;;;;;;;;20.80;62.00;;;;;;5070633;28;19982;-78
2023/06/29 07:44:58;;;;;;;;;;;20.80;62.70;;;;;;5053817;28;20025;-78
2023/06/29 07:47:25;;;;;;;;;;;20.80;61.80;;;;;;5060710;28;20074;-79
2023/06/29 07:49:51;;;;;;;;;;;20.80;61.90;;;;;;5056671;28;20441;-78
2023/06/29 07:52:18;;;;;;;;;;;20.90;61.90;;;;;;5054057;28;19971;-78
2023/06/29 07:54:45;;;;;;;;;;;20.90;61.60;;;;;;5060052;28;20005;-78
2023/06/29 07:57:12;;;;;;;;;;;20.90;61.30;;;;;;5048434;28;20019;-78
2023/06/29 07:59:40;;;;;;;;;;;21.00;61.20;;;;;;5065685;28;19979;-78
2023/06/29 08:02:07;;;;;;;;;;;21.00;61.00;;;;;;5056143;28;19996;-77
2023/06/29 08:04:33;;;;;;;;;;;21.10;60.90;;;;;;5053761;28;19992;-78
2023/06/29 08:07:00;;;;;;;;;;;21.10;60.60;;;;;;5060902;28;20481;-78
2023/06/29 08:09:26;;;;;;;;;;;21.20;60.50;;;;;;5063482;28;19991;-78
2023/06/29 08:11:53;;;;;;;;;;;21.20;60.40;;;;;;5059432;28;20504;-78
2023/06/29 08:14:19;;;;;;;;;;;21.30;60.20;;;;;;5058112;28;20030;-79
2023/06/29 08:16:47;;;;;;;;;;;21.30;60.20;;;;;;5064087;28;20002;-77
2023/06/29 08:19:14;;;;;;;;;;;21.30;60.00;;;;;;5060081;28;19983;-77
2023/06/29 08:21:41;;;;;;;;;;;21.30;60.00;;;;;;5062841;28;20591;-78
2023/06/29 08:24:08;;;;;;;;;;;21.40;59.90;;;;;;5064146;28;19975;-78
2023/06/29 08:26:34;;;;;;;;;;;21.40;59.90;;;;;;5054651;28;19991;-79
2023/06/29 08:29:01;;;;;;;;;;;21.50;59.80;;;;;;5054140;28;20102;-78
2023/06/29 08:31:27;;;;;;;;;;;21.50;59.50;;;;;;5051955;28;20014;-78
2023/06/29 08:33:55;;;;;;;;;;;21.50;59.40;;;;;;5061332;28;19987;-78
2023/06/29 08:36:22;;;;;;;;;;;21.50;59.30;;;;;;5055133;28;19996;-77
2023/06/29 08:38:49;;;;;;;;;;;21.60;59.20;;;;;;5054558;28;20017;-78
2023/06/29 08:41:16;;;;;;;;;;;21.70;59.20;;;;;;5062525;28;20366;-78
2023/06/29 08:43:43;;;;;;;;;;;21.60;59.00;;;;;;5049399;28;20765;-77
2023/06/29 08:46:09;;;;;;;;;;;21.70;59.00;;;;;;5049199;28;20009;-78
2023/06/29 08:48:37;;;;;;;;;;;21.70;59.00;;;;;;5052356;28;20754;-78
2023/06/29 08:51:09;;;;;;;;;;;21.80;59.00;;;;;;5049293;28;20650;-77
2023/06/29 08:53:35;;;;;;;;;;;21.90;58.90;;;;;;5053466;28;20143;-76
2023/06/29 08:56:02;;;;;;;;;;;21.90;58.80;;;;;;5054484;28;20018;-76
2023/06/29 08:58:29;;;;;;;;;;;22.00;58.80;;;;;;5051088;28;19982;-76
2023/06/29 09:00:56;;;;;;;;;;;22.00;58.60;;;;;;5052078;28;20007;-77
2023/06/29 09:03:24;;;;;;;;;;;22.00;58.70;;;;;;5060713;28;20015;-77
2023/06/29 09:05:51;;;;;;;;;;;22.10;58.40;;;;;;5061311;28;20043;-76
2023/06/29 09:08:19;;;;;;;;;;;22.10;58.30;;;;;;5054341;28;19995;-78
2023/06/29 09:10:47;;;;;;;;;;;22.20;58.00;;;;;;5060976;28;19983;-77
2023/06/29 09:13:13;;;;;;;;;;;22.10;57.90;;;;;;5053578;28;19975;-77
2023/06/29 09:15:40;;;;;;;;;;;22.20;57.90;;;;;;5064417;28;20010;-77
2023/06/29 09:18:07;;;;;;;;;;;22.30;57.80;;;;;;5051858;28;19975;-76
2023/06/29 09:20:34;;;;;;;;;;;22.30;57.70;;;;;;5063696;28;19980;-77
2023/06/29 09:23:02;;;;;;;;;;;22.30;57.70;;;;;;5052216;28;19982;-77
2023/06/29 09:25:30;;;;;;;;;;;22.40;57.60;;;;;;5057396;28;19991;-78
2023/06/29 09:28:03;;;;;;;;;;;22.40;57.50;;;;;;5066016;28;19979;-78
2023/06/29 09:30:34;;;;;;;;;;;22.50;57.50;;;;;;5062658;28;19992;-77
2023/06/29 09:33:05;;;;;;;;;;;22.50;57.10;;;;;;5056085;28;20678;-78
2023/06/29 09:35:31;;;;;;;;;;;22.60;56.90;;;;;;5064987;28;19996;-78
2023/06/29 09:38:01;;;;;;;;;;;22.60;56.80;;;;;;5066923;28;20547;-78
2023/06/29 09:40:28;;;;;;;;;;;22.70;56.70;;;;;;5069496;28;20527;-79
2023/06/29 09:42:56;;;;;;;;;;;22.80;56.80;;;;;;5066822;28;20069;-78
2023/06/29 09:45:22;;;;;;;;;;;22.80;56.60;;;;;;5064885;28;19991;-78
2023/06/29 09:47:49;;;;;;;;;;;22.80;56.40;;;;;;5067983;28;19982;-78
2023/06/29 09:50:19;;;;;;;;;;;22.90;56.30;;;;;;5065395;28;19991;-78
2023/06/29 09:52:47;;;;;;;;;;;23.00;55.90;;;;;;5064248;28;19975;-79
2023/06/29 09:55:14;;;;;;;;;;;23.00;55.80;;;;;;5066932;28;19987;-78
2023/06/29 09:57:42;;;;;;;;;;;23.00;55.80;;;;;;5057885;28;20792;-78
2023/06/29 10:00:11;;;;;;;;;;;23.10;55.80;;;;;;5067734;28;19972;-78
2023/06/29 10:02:38;;;;;;;;;;;23.10;55.60;;;;;;5058602;28;19982;-79
2023/06/29 10:05:04;;;;;;;;;;;23.10;55.70;;;;;;5060833;28;20010;-78
2023/06/29 10:07:31;;;;;;;;;;;23.20;55.60;;;;;;5067055;28;19972;-78
2023/06/29 10:09:59;;;;;;;;;;;23.20;55.60;;;;;;5054186;28;19991;-78
2023/06/29 10:12:27;;;;;;;;;;;23.30;55.60;;;;;;5060196;28;19986;-78
2023/06/29 10:14:56;;;;;;;;;;;23.20;55.50;;;;;;5069410;28;20599;-78
2023/06/29 10:17:26;;;;;;;;;;;23.40;55.40;;;;;;5057945;28;19995;-78
2023/06/29 10:19:54;;;;;;;;;;;23.40;55.30;;;;;;5064744;28;19979;-78
2023/06/29 10:22:21;;;;;;;;;;;23.40;55.20;;;;;;5062817;28;19976;-78
2023/06/29 10:24:55;;;;;;;;;;;23.40;55.10;;;;;;5059860;28;20354;-78
2023/06/29 10:27:21;;;;;;;;;;;23.50;55.00;;;;;;5059804;28;19995;-78
2023/06/29 10:29:50;;;;;;;;;;;23.50;54.90;;;;;;5057389;28;20853;-78
2023/06/29 10:32:31;;;;;;;;;;;23.50;54.70;;;;;;5058424;28;19991;-79
2023/06/29 10:35:05;;;;;;;;;;;23.60;54.60;;;;;;5062986;28;19999;-77
2023/06/29 10:37:32;;;;;;;;;;;23.60;54.50;;;;;;5066279;28;20074;-77
2023/06/29 10:39:59;;;;;;;;;;;23.60;54.40;;;;;;5065626;28;20069;-77
2023/06/29 10:42:45;;;;;;;;;;;23.70;54.40;;;;;;5067483;28;20622;-78
2023/06/29 10:45:26;;;;;;;;;;;23.80;54.40;;;;;;5062362;28;19994;-78
2023/06/29 10:48:00;;;;;;;;;;;23.80;54.30;;;;;;5063403;28;19975;-78
2023/06/29 10:50:29;;;;;;;;;;;23.80;54.10;;;;;;5063677;28;19991;-78
2023/06/29 10:52:58;;;;;;;;;;;23.90;53.70;;;;;;5055706;28;19972;-78
2023/06/29 10:55:25;;;;;;;;;;;23.90;53.70;;;;;;5057001;28;19987;-78
2023/06/29 10:57:53;;;;;;;;;;;23.90;53.60;;;;;;5055794;28;19975;-77
2023/06/29 11:00:19;;;;;;;;;;;24.00;53.60;;;;;;5063896;28;20325;-78
2023/06/29 11:02:47;;;;;;;;;;;24.00;53.60;;;;;;5056042;28;20078;-77
2023/06/29 11:05:14;;;;;;;;;;;24.10;53.60;;;;;;5062026;28;20665;-81
2023/06/29 11:07:43;;;;;;;;;;;24.10;53.60;;;;;;5054508;28;19979;-77
2023/06/29 11:10:09;;;;;;;;;;;24.10;53.30;;;;;;5053869;28;20003;-77
2023/06/29 11:12:37;;;;;;;;;;;24.20;53.00;;;;;;5064028;28;20445;-78
2023/06/29 11:15:04;;;;;;;;;;;24.20;52.90;;;;;;5055911;28;19999;-78
2023/06/29 11:17:31;;;;;;;;;;;24.20;53.40;;;;;;5055637;28;20451;-78
2023/06/29 11:19:57;;;;;;;;;;;24.20;52.70;;;;;;5056491;28;19979;-78
2023/06/29 11:22:24;;;;;;;;;;;24.30;52.70;;;;;;5066268;28;19982;-78
2023/06/29 11:24:52;;;;;;;;;;;24.30;52.50;;;;;;5054611;28;19996;-78
2023/06/29 11:27:19;;;;;;;;;;;24.30;52.50;;;;;;5057755;28;19993;-78
2023/06/29 11:29:45;;;;;;;;;;;24.40;52.30;;;;;;5057002;28;20022;-78
2023/06/29 11:32:12;;;;;;;;;;;24.40;52.20;;;;;;5056174;28;19995;-78
2023/06/29 11:34:39;;;;;;;;;;;24.40;52.20;;;;;;5062502;28;20640;-78
2023/06/29 11:37:06;;;;;;;;;;;24.40;52.10;;;;;;5064155;28;19979;-78
2023/06/29 11:39:33;;;;;;;;;;;24.50;52.20;;;;;;5064968;28;19986;-78
2023/06/29 11:42:02;;;;;;;;;;;24.50;52.20;;;;;;5067123;28;20082;-78
2023/06/29 11:44:29;;;;;;;;;;;24.50;52.20;;;;;;5060237;28;20021;-78
2023/06/29 11:46:57;;;;;;;;;;;24.50;52.30;;;;;;5065132;28;19999;-78
2023/06/29 11:49:23;;;;;;;;;;;24.50;52.20;;;;;;5065243;28;20102;-78
2023/06/29 11:51:50;;;;;;;;;;;24.50;52.30;;;;;;5056488;28;19986;-79
2023/06/29 11:54:17;;;;;;;;;;;24.50;52.30;;;;;;5064309;28;19979;-78
2023/06/29 11:56:44;;;;;;;;;;;24.60;52.50;;;;;;5066529;28;19988;-77
2023/06/29 11:59:15;;;;;;;;;;;24.60;52.50;;;;;;5066498;28;19984;-78
2023/06/29 12:01:41;;;;;;;;;;;24.60;52.60;;;;;;5064761;28;20048;-78
2023/06/29 12:04:08;;;;;;;;;;;24.60;52.70;;;;;;5061990;28;19979;-78
2023/06/29 12:06:35;;;;;;;;;;;24.60;52.70;;;;;;5061211;28;19976;-79
2023/06/29 12:09:09;;;;;;;;;;;24.60;52.70;;;;;;5068013;28;20026;-78
2023/06/29 12:11:36;;;;;;;;;;;24.60;52.70;;;;;;5061780;28;19970;-78
2023/06/29 12:14:03;;;;;;;;;;;24.70;52.80;;;;;;5062424;28;20092;-77
2023/06/29 12:16:31;;;;;;;;;;;24.70;52.80;;;;;;5059481;28;20095;-77
2023/06/29 12:18:59;;;;;;;;;;;24.70;52.80;;;;;;5061572;28;20070;-78
2023/06/29 12:21:25;;;;;;;;;;;24.70;52.80;;;;;;5070343;28;19980;-77
2023/06/29 12:23:52;;;;;;;;;;;24.70;52.60;;;;;;5064870;28;19983;-78
2023/06/29 12:26:21;;;;;;;;;;;24.80;52.70;;;;;;5060507;28;20002;-78
2023/06/29 12:28:47;;;;;;;;;;;24.70;53.20;;;;;;5053085;28;19979;-77
2023/06/29 12:31:14;;;;;;;;;;;24.80;52.60;;;;;;5051953;28;19991;-78
2023/06/29 12:33:42;;;;;;;;;;;24.80;52.50;;;;;;5057429;28;19987;-79
2023/06/29 12:36:08;;;;;;;;;;;24.90;52.50;;;;;;5048735;28;20509;-77
2023/06/29 12:38:35;;;;;;;;;;;24.90;52.40;;;;;;5063129;28;20441;-80
2023/06/29 12:41:01;;;;;;;;;;;24.90;52.30;;;;;;5064051;28;20064;-78
2023/06/29 12:43:28;;;;;;;;;;;25.00;52.40;;;;;;5056383;28;19975;-78
2023/06/29 12:45:54;;;;;;;;;;;25.00;52.20;;;;;;5062787;28;20430;-78
2023/06/29 12:48:21;;;;;;;;;;;25.10;52.20;;;;;;5062176;28;19975;-78
2023/06/29 12:50:49;;;;;;;;;;;25.10;52.00;;;;;;5058545;28;19987;-78
2023/06/29 12:53:15;;;;;;;;;;;25.20;51.90;;;;;;5056838;28;19975;-78
2023/06/29 12:55:42;;;;;;;;;;;25.20;51.80;;;;;;5050706;28;20030;-77
2023/06/29 12:58:08;;;;;;;;;;;25.30;51.80;;;;;;5052524;28;19975;-78
2023/06/29 13:00:35;;;;;;;;;;;25.40;51.70;;;;;;5064025;28;19996;-78
2023/06/29 13:03:07;;;;;;;;;;;25.40;51.60;;;;;;5056749;28;19987;-78
2023/06/29 13:05:34;;;;;;;;;;;25.50;51.50;;;;;;5058362;28;20001;-78
2023/06/29 13:08:02;;;;;;;;;;;25.60;51.30;;;;;;5059995;28;20078;-77
2023/06/29 13:10:29;;;;;;;;;;;25.60;51.00;;;;;;5057076;28;19987;-78
2023/06/29 13:12:55;;;;;;;;;;;25.70;51.00;;;;;;5054500;28;20075;-78
2023/06/29 13:15:22;;;;;;;;;;;25.80;50.80;;;;;;5061509;28;20222;-80
2023/06/29 13:17:48;;;;;;;;;;;25.90;50.80;;;;;;5054545;28;20629;-77
2023/06/29 13:20:15;;;;;;;;;;;25.90;50.60;;;;;;5059254;28;19985;-78
2023/06/29 13:22:41;;;;;;;;;;;25.90;50.40;;;;;;5055503;28;20103;-77
2023/06/29 13:25:10;;;;;;;;;;;26.00;50.40;;;;;;5052566;28;20028;-78
2023/06/29 13:27:37;;;;;;;;;;;26.00;50.30;;;;;;5049744;28;20050;-78
2023/06/29 13:30:04;;;;;;;;;;;26.10;50.20;;;;;;5055254;28;19992;-77
2023/06/29 13:32:31;;;;;;;;;;;26.10;50.20;;;;;;5054791;28;19996;-77
2023/06/29 13:34:57;;;;;;;;;;;26.10;50.00;;;;;;5058321;28;20019;-78
2023/06/29 13:37:24;;;;;;;;;;;26.20;49.90;;;;;;5057098;28;19984;-79
2023/06/29 13:39:50;;;;;;;;;;;26.20;49.60;;;;;;5060814;28;19992;-78
2023/06/29 13:42:18;;;;;;;;;;;26.20;49.70;;;;;;5061578;28;19976;-78
2023/06/29 13:44:45;;;;;;;;;;;26.20;49.50;;;;;;5055014;28;20607;-77
2023/06/29 13:47:18;;;;;;;;;;;26.30;48.80;;;;;;5067316;28;19996;-78
2023/06/29 13:49:45;;;;;;;;;;;26.30;48.70;;;;;;5055572;28;19998;-78
2023/06/29 13:52:11;;;;;;;;;;;26.20;48.80;;;;;;5065092;28;19976;-78
2023/06/29 13:54:38;;;;;;;;;;;26.30;48.50;;;;;;5067482;28;20006;-77
2023/06/29 13:57:05;;;;;;;;;;;26.30;48.10;;;;;;5064803;28;19987;-78
2023/06/29 13:59:33;;;;;;;;;;;26.30;48.40;;;;;;5062889;28;20575;-78
2023/06/29 14:02:00;;;;;;;;;;;26.30;48.60;;;;;;5060788;28;19995;-78
2023/06/29 14:04:26;;;;;;;;;;;26.30;48.50;;;;;;5057044;28;19981;-78
2023/06/29 14:06:54;;;;;;;;;;;26.40;48.60;;;;;;5057866;28;19981;-78
2023/06/29 14:09:21;;;;;;;;;;;26.40;48.50;;;;;;5064140;28;20148;-79
2023/06/29 14:11:47;;;;;;;;;;;26.50;48.60;;;;;;5060966;28;19980;-78
2023/06/29 14:14:14;;;;;;;;;;;26.50;48.70;;;;;;5058683;28;19975;-78
2023/06/29 14:16:43;;;;;;;;;;;26.50;48.30;;;;;;5060371;28;19999;-78